sensor_id;sensor_type;location;lat;lon;timestamp;P1;durP1;ratioP1;P2;durP2;ratioP2
6878;SDS011;3478;51.462;7.338;2023-12-20T00:02:26;24.40;;;13.63;;
6878;SDS011;3478;51.462;7.338;2023-12-20T00:07:28;18.73;;;12.40;;
6878;SDS011;3478;51.462;7.338;2023-12-20T00:12:30;22.23;;;13.43;;
6878;SDS011;3478;51.462;7.338;2023-12-20T00:17:33;20.83;;;13.13;;
6878;SDS011;3478;51.462;7.338;2023-12-20T00:22:35;20.83;;;12.90;;
6878;SDS011;3478;51.462;7.338;2023-12-20T00:27:37;23.37;;;14.90;;
6878;SDS011;3478;51.462;7.338;2023-12-20T00:32:41;20.90;;;13.30;;
6878;SDS011;3478;51.462;7.338;2023-12-20T00:37:46;20.33;;;11.27;;
6878;SDS011;3478;51.462;7.338;2023-12-20T00:42:48;18.90;;;12.80;;
6878;SDS011;3478;51.462;7.338;2023-12-20T00:47:51;17.97;;;10.90;;
6878;SDS011;3478;51.462;7.338;2023-12-20T00:52:53;18.80;;;11.77;;
6878;SDS011;3478;51.462;7.338;2023-12-20T00:57:56;25.07;;;11.37;;
6878;SDS011;3478;51.462;7.338;2023-12-20T01:03:00;24.23;;;9.60;;
6878;SDS011;3478;51.462;7.338;2023-12-20T01:08:02;19.77;;;8.83;;
6878;SDS011;3478;51.462;7.338;2023-12-20T01:13:05;15.10;;;7.10;;
6878;SDS011;3478;51.462;7.338;2023-12-20T01:18:08;14.80;;;8.57;;
6878;SDS011;3478;51.462;7.338;2023-12-20T01:23:10;13.13;;;7.03;;
6878;SDS011;3478;51.462;7.338;2023-12-20T01:28:12;13.00;;;6.87;;
6878;SDS011;3478;51.462;7.338;2023-12-20T01:33:15;11.17;;;6.27;;
6878;SDS011;3478;51.462;7.338;2023-12-20T01:38:17;15.30;;;7.67;;
6878;SDS011;3478;51.462;7.338;2023-12-20T01:43:20;17.57;;;8.10;;
6878;SDS011;3478;51.462;7.338;2023-12-20T01:48:23;11.90;;;5.83;;
6878;SDS011;3478;51.462;7.338;2023-12-20T01:53:26;12.60;;;6.80;;
6878;SDS011;3478;51.462;7.338;2023-12-20T01:58:29;12.77;;;6.70;;
6878;SDS011;3478;51.462;7.338;2023-12-20T02:03:33;14.27;;;7.63;;
6878;SDS011;3478;51.462;7.338;2023-12-20T02:08:36;7.87;;;4.93;;
6878;SDS011;3478;51.462;7.338;2023-12-20T02:13:38;6.60;;;4.80;;
6878;SDS011;3478;51.462;7.338;2023-12-20T02:18:42;18.43;;;6.23;;
6878;SDS011;3478;51.462;7.338;2023-12-20T02:23:46;6.07;;;4.17;;
6878;SDS011;3478;51.462;7.338;2023-12-20T02:28:48;12.00;;;4.30;;
6878;SDS011;3478;51.462;7.338;2023-12-20T02:33:50;10.13;;;4.80;;
6878;SDS011;3478;51.462;7.338;2023-12-20T02:38:53;21.30;;;5.03;;
6878;SDS011;3478;51.462;7.338;2023-12-20T02:43:55;11.90;;;5.93;;
6878;SDS011;3478;51.462;7.338;2023-12-20T02:48:56;10.27;;;5.67;;
6878;SDS011;3478;51.462;7.338;2023-12-20T02:53:59;17.00;;;5.53;;
6878;SDS011;3478;51.462;7.338;2023-12-20T02:59:01;13.60;;;6.83;;
6878;SDS011;3478;51.462;7.338;2023-12-20T03:04:05;21.83;;;7.50;;
6878;SDS011;3478;51.462;7.338;2023-12-20T03:09:08;14.40;;;6.97;;
6878;SDS011;3478;51.462;7.338;2023-12-20T03:14:10;13.43;;;7.27;;
6878;SDS011;3478;51.462;7.338;2023-12-20T03:19:12;16.07;;;7.60;;
6878;SDS011;3478;51.462;7.338;2023-12-20T03:24:15;12.93;;;6.40;;
6878;SDS011;3478;51.462;7.338;2023-12-20T03:29:17;20.03;;;7.80;;
6878;SDS011;3478;51.462;7.338;2023-12-20T03:34:19;13.30;;;8.87;;
6878;SDS011;3478;51.462;7.338;2023-12-20T03:39:22;10.70;;;6.53;;
6878;SDS011;3478;51.462;7.338;2023-12-20T03:44:24;13.73;;;7.17;;
6878;SDS011;3478;51.462;7.338;2023-12-20T03:49:26;14.00;;;7.33;;
6878;SDS011;3478;51.462;7.338;2023-12-20T03:54:29;10.67;;;7.00;;
6878;SDS011;3478;51.462;7.338;2023-12-20T03:59:34;15.13;;;6.80;;
6878;SDS011;3478;51.462;7.338;2023-12-20T04:04:36;6.60;;;5.80;;
6878;SDS011;3478;51.462;7.338;2023-12-20T04:09:39;8.90;;;4.70;;
6878;SDS011;3478;51.462;7.338;2023-12-20T04:14:41;10.40;;;5.57;;
6878;SDS011;3478;51.462;7.338;2023-12-20T04:19:43;14.20;;;5.23;;
6878;SDS011;3478;51.462;7.338;2023-12-20T04:24:46;15.50;;;5.57;;
6878;SDS011;3478;51.462;7.338;2023-12-20T04:29:48;17.03;;;6.87;;
6878;SDS011;3478;51.462;7.338;2023-12-20T04:34:50;20.10;;;7.43;;
6878;SDS011;3478;51.462;7.338;2023-12-20T04:39:53;17.00;;;7.60;;
6878;SDS011;3478;51.462;7.338;2023-12-20T04:44:55;17.73;;;8.37;;
6878;SDS011;3478;51.462;7.338;2023-12-20T04:49:57;14.30;;;8.80;;
6878;SDS011;3478;51.462;7.338;2023-12-20T04:55:01;25.73;;;8.63;;
6878;SDS011;3478;51.462;7.338;2023-12-20T05:00:03;26.83;;;7.70;;
6878;SDS011;3478;51.462;7.338;2023-12-20T05:05:05;25.03;;;8.17;;
6878;SDS011;3478;51.462;7.338;2023-12-20T05:10:09;15.60;;;8.00;;
6878;SDS011;3478;51.462;7.338;2023-12-20T05:15:11;14.70;;;8.47;;
6878;SDS011;3478;51.462;7.338;2023-12-20T05:20:13;24.83;;;7.80;;
6878;SDS011;3478;51.462;7.338;2023-12-20T05:25:17;24.00;;;8.93;;
6878;SDS011;3478;51.462;7.338;2023-12-20T05:30:19;15.63;;;7.50;;
6878;SDS011;3478;51.462;7.338;2023-12-20T05:35:21;13.40;;;9.13;;
6878;SDS011;3478;51.462;7.338;2023-12-20T05:40:24;15.00;;;7.10;;
6878;SDS011;3478;51.462;7.338;2023-12-20T05:45:26;15.87;;;8.37;;
6878;SDS011;3478;51.462;7.338;2023-12-20T05:50:28;17.10;;;8.67;;
6878;SDS011;3478;51.462;7.338;2023-12-20T05:55:31;13.57;;;7.50;;
6878;SDS011;3478;51.462;7.338;2023-12-20T06:00:34;11.73;;;8.17;;
6878;SDS011;3478;51.462;7.338;2023-12-20T06:05:36;19.67;;;8.90;;
6878;SDS011;3478;51.462;7.338;2023-12-20T06:10:39;20.50;;;9.50;;
6878;SDS011;3478;51.462;7.338;2023-12-20T06:15:41;20.47;;;10.27;;
6878;SDS011;3478;51.462;7.338;2023-12-20T06:20:43;16.13;;;9.90;;
6878;SDS011;3478;51.462;7.338;2023-12-20T06:25:46;19.33;;;9.83;;
6878;SDS011;3478;51.462;7.338;2023-12-20T06:30:48;21.70;;;12.00;;
6878;SDS011;3478;51.462;7.338;2023-12-20T06:35:52;22.10;;;11.00;;
6878;SDS011;3478;51.462;7.338;2023-12-20T06:40:55;14.43;;;9.37;;
6878;SDS011;3478;51.462;7.338;2023-12-20T06:45:59;26.53;;;11.10;;
6878;SDS011;3478;51.462;7.338;2023-12-20T06:51:02;24.63;;;11.40;;
6878;SDS011;3478;51.462;7.338;2023-12-20T06:56:06;15.47;;;9.67;;
6878;SDS011;3478;51.462;7.338;2023-12-20T07:01:10;11.23;;;8.43;;
6878;SDS011;3478;51.462;7.338;2023-12-20T07:06:13;14.57;;;8.83;;
6878;SDS011;3478;51.462;7.338;2023-12-20T07:11:17;18.00;;;10.57;;
6878;SDS011;3478;51.462;7.338;2023-12-20T07:16:19;17.13;;;9.70;;
6878;SDS011;3478;51.462;7.338;2023-12-20T07:21:22;20.87;;;9.17;;
6878;SDS011;3478;51.462;7.338;2023-12-20T07:26:26;13.10;;;7.90;;
6878;SDS011;3478;51.462;7.338;2023-12-20T07:31:27;27.40;;;9.20;;
6878;SDS011;3478;51.462;7.338;2023-12-20T07:36:29;20.00;;;8.77;;
6878;SDS011;3478;51.462;7.338;2023-12-20T07:41:32;26.67;;;8.47;;
6878;SDS011;3478;51.462;7.338;2023-12-20T07:46:34;18.97;;;8.50;;
6878;SDS011;3478;51.462;7.338;2023-12-20T07:51:36;16.67;;;8.17;;
6878;SDS011;3478;51.462;7.338;2023-12-20T07:56:39;19.97;;;10.03;;
6878;SDS011;3478;51.462;7.338;2023-12-20T08:01:41;19.53;;;9.27;;
6878;SDS011;3478;51.462;7.338;2023-12-20T08:06:43;22.70;;;8.53;;
6878;SDS011;3478;51.462;7.338;2023-12-20T08:11:46;22.43;;;9.07;;
6878;SDS011;3478;51.462;7.338;2023-12-20T08:16:48;17.20;;;9.33;;
6878;SDS011;3478;51.462;7.338;2023-12-20T08:21:50;24.23;;;9.27;;
6878;SDS011;3478;51.462;7.338;2023-12-20T08:26:53;19.17;;;8.93;;
6878;SDS011;3478;51.462;7.338;2023-12-20T08:31:55;19.43;;;8.07;;
6878;SDS011;3478;51.462;7.338;2023-12-20T08:36:57;19.03;;;6.63;;
6878;SDS011;3478;51.462;7.338;2023-12-20T08:42:01;17.53;;;8.00;;
6878;SDS011;3478;51.462;7.338;2023-12-20T08:47:03;22.10;;;8.33;;
6878;SDS011;3478;51.462;7.338;2023-12-20T08:52:05;11.93;;;7.30;;
6878;SDS011;3478;51.462;7.338;2023-12-20T08:57:08;10.17;;;7.67;;
6878;SDS011;3478;51.462;7.338;2023-12-20T09:02:10;23.27;;;7.30;;
6878;SDS011;3478;51.462;7.338;2023-12-20T09:07:21;22.17;;;8.50;;
6878;SDS011;3478;51.462;7.338;2023-12-20T09:12:25;22.73;;;8.50;;
6878;SDS011;3478;51.462;7.338;2023-12-20T09:17:27;17.53;;;7.23;;
6878;SDS011;3478;51.462;7.338;2023-12-20T09:22:29;13.03;;;7.40;;
6878;SDS011;3478;51.462;7.338;2023-12-20T09:27:32;20.40;;;7.03;;
6878;SDS011;3478;51.462;7.338;2023-12-20T09:32:34;12.30;;;6.70;;
6878;SDS011;3478;51.462;7.338;2023-12-20T09:37:36;23.77;;;7.50;;
6878;SDS011;3478;51.462;7.338;2023-12-20T09:42:41;22.13;;;6.73;;
6878;SDS011;3478;51.462;7.338;2023-12-20T09:47:50;21.43;;;7.53;;
6878;SDS011;3478;51.462;7.338;2023-12-20T09:52:54;27.60;;;6.30;;
6878;SDS011;3478;51.462;7.338;2023-12-20T09:58:01;11.93;;;5.43;;
6878;SDS011;3478;51.462;7.338;2023-12-20T10:03:03;17.03;;;7.83;;
6878;SDS011;3478;51.462;7.338;2023-12-20T10:08:07;10.77;;;5.53;;
6878;SDS011;3478;51.462;7.338;2023-12-20T10:13:11;12.37;;;4.80;;
6878;SDS011;3478;51.462;7.338;2023-12-20T10:18:14;17.30;;;5.73;;
6878;SDS011;3478;51.462;7.338;2023-12-20T10:23:16;15.47;;;6.10;;
6878;SDS011;3478;51.462;7.338;2023-12-20T10:28:20;17.30;;;6.17;;
6878;SDS011;3478;51.462;7.338;2023-12-20T10:33:24;17.30;;;6.43;;
6878;SDS011;3478;51.462;7.338;2023-12-20T10:38:26;15.33;;;6.23;;
6878;SDS011;3478;51.462;7.338;2023-12-20T10:43:31;12.17;;;5.90;;
6878;SDS011;3478;51.462;7.338;2023-12-20T10:48:34;10.20;;;5.90;;
6878;SDS011;3478;51.462;7.338;2023-12-20T10:53:38;9.20;;;5.60;;
6878;SDS011;3478;51.462;7.338;2023-12-20T10:58:43;13.00;;;5.63;;
6878;SDS011;3478;51.462;7.338;2023-12-20T11:03:48;14.03;;;5.80;;
6878;SDS011;3478;51.462;7.338;2023-12-20T11:08:51;17.10;;;6.60;;
6878;SDS011;3478;51.462;7.338;2023-12-20T11:14:11;14.83;;;6.07;;
6878;SDS011;3478;51.462;7.338;2023-12-20T11:19:18;11.00;;;6.30;;
6878;SDS011;3478;51.462;7.338;2023-12-20T11:24:21;12.33;;;6.50;;
6878;SDS011;3478;51.462;7.338;2023-12-20T11:29:32;12.50;;;6.67;;
6878;SDS011;3478;51.462;7.338;2023-12-20T11:34:35;10.73;;;5.70;;
6878;SDS011;3478;51.462;7.338;2023-12-20T11:39:37;12.33;;;7.20;;
6878;SDS011;3478;51.462;7.338;2023-12-20T11:44:40;16.33;;;7.80;;
6878;SDS011;3478;51.462;7.338;2023-12-20T11:49:46;19.90;;;8.10;;
6878;SDS011;3478;51.462;7.338;2023-12-20T11:54:48;11.20;;;6.60;;
6878;SDS011;3478;51.462;7.338;2023-12-20T11:59:52;10.53;;;6.33;;
6878;SDS011;3478;51.462;7.338;2023-12-20T12:04:54;11.70;;;6.70;;
6878;SDS011;3478;51.462;7.338;2023-12-20T12:09:56;16.60;;;9.10;;
6878;SDS011;3478;51.462;7.338;2023-12-20T12:15:00;19.10;;;8.47;;
6878;SDS011;3478;51.462;7.338;2023-12-20T12:20:05;14.27;;;7.60;;
6878;SDS011;3478;51.462;7.338;2023-12-20T12:25:12;18.80;;;7.20;;
6878;SDS011;3478;51.462;7.338;2023-12-20T12:30:16;11.17;;;7.33;;
6878;SDS011;3478;51.462;7.338;2023-12-20T12:35:18;14.10;;;7.90;;
6878;SDS011;3478;51.462;7.338;2023-12-20T12:40:20;13.80;;;8.43;;
6878;SDS011;3478;51.462;7.338;2023-12-20T12:45:24;10.83;;;7.93;;
6878;SDS011;3478;51.462;7.338;2023-12-20T12:50:27;17.20;;;9.50;;
6878;SDS011;3478;51.462;7.338;2023-12-20T12:55:28;13.13;;;7.70;;
6878;SDS011;3478;51.462;7.338;2023-12-20T13:00:32;22.63;;;9.70;;
6878;SDS011;3478;51.462;7.338;2023-12-20T13:05:34;14.03;;;8.63;;
6878;SDS011;3478;51.462;7.338;2023-12-20T13:10:36;15.57;;;7.90;;
6878;SDS011;3478;51.462;7.338;2023-12-20T13:15:39;12.50;;;7.33;;
6878;SDS011;3478;51.462;7.338;2023-12-20T13:20:41;12.53;;;7.20;;
6878;SDS011;3478;51.462;7.338;2023-12-20T13:25:43;18.50;;;7.20;;
6878;SDS011;3478;51.462;7.338;2023-12-20T13:30:48;11.07;;;7.37;;
6878;SDS011;3478;51.462;7.338;2023-12-20T13:35:50;13.37;;;7.60;;
6878;SDS011;3478;51.462;7.338;2023-12-20T13:40:51;10.33;;;7.30;;
6878;SDS011;3478;51.462;7.338;2023-12-20T13:45:55;15.87;;;8.07;;
6878;SDS011;3478;51.462;7.338;2023-12-20T13:50:57;20.60;;;7.27;;
6878;SDS011;3478;51.462;7.338;2023-12-20T13:56:00;12.80;;;7.57;;
6878;SDS011;3478;51.462;7.338;2023-12-20T14:01:03;12.33;;;6.00;;
6878;SDS011;3478;51.462;7.338;2023-12-20T14:06:05;6.20;;;5.37;;
6878;SDS011;3478;51.462;7.338;2023-12-20T14:11:07;9.73;;;6.20;;
6878;SDS011;3478;51.462;7.338;2023-12-20T14:16:10;11.60;;;6.63;;
6878;SDS011;3478;51.462;7.338;2023-12-20T14:21:12;8.30;;;6.83;;
6878;SDS011;3478;51.462;7.338;2023-12-20T14:26:14;10.00;;;6.70;;
6878;SDS011;3478;51.462;7.338;2023-12-20T14:31:17;12.43;;;8.40;;
6878;SDS011;3478;51.462;7.338;2023-12-20T14:36:21;9.20;;;6.23;;
6878;SDS011;3478;51.462;7.338;2023-12-20T14:41:23;12.43;;;7.10;;
6878;SDS011;3478;51.462;7.338;2023-12-20T14:46:27;11.43;;;5.93;;
6878;SDS011;3478;51.462;7.338;2023-12-20T14:51:29;7.73;;;6.60;;
6878;SDS011;3478;51.462;7.338;2023-12-20T14:56:31;14.57;;;7.87;;
6878;SDS011;3478;51.462;7.338;2023-12-20T15:01:34;17.87;;;9.10;;
6878;SDS011;3478;51.462;7.338;2023-12-20T15:06:37;17.07;;;10.07;;
6878;SDS011;3478;51.462;7.338;2023-12-20T15:11:38;17.20;;;9.50;;
6878;SDS011;3478;51.462;7.338;2023-12-20T15:16:42;19.40;;;11.20;;
6878;SDS011;3478;51.462;7.338;2023-12-20T15:21:44;15.43;;;10.27;;
6878;SDS011;3478;51.462;7.338;2023-12-20T15:26:46;21.77;;;10.90;;
6878;SDS011;3478;51.462;7.338;2023-12-20T15:31:49;28.17;;;11.73;;
6878;SDS011;3478;51.462;7.338;2023-12-20T15:36:51;14.63;;;9.30;;
6878;SDS011;3478;51.462;7.338;2023-12-20T15:41:53;17.00;;;9.80;;
6878;SDS011;3478;51.462;7.338;2023-12-20T15:46:56;18.33;;;11.70;;
6878;SDS011;3478;51.462;7.338;2023-12-20T15:51:58;17.97;;;11.43;;
6878;SDS011;3478;51.462;7.338;2023-12-20T15:57:00;18.43;;;11.50;;
6878;SDS011;3478;51.462;7.338;2023-12-20T16:02:04;25.20;;;11.80;;
6878;SDS011;3478;51.462;7.338;2023-12-20T16:07:05;19.57;;;12.03;;
6878;SDS011;3478;51.462;7.338;2023-12-20T16:12:07;15.77;;;9.17;;
6878;SDS011;3478;51.462;7.338;2023-12-20T16:17:11;19.97;;;11.40;;
6878;SDS011;3478;51.462;7.338;2023-12-20T16:22:13;14.83;;;9.57;;
6878;SDS011;3478;51.462;7.338;2023-12-20T16:27:15;16.30;;;10.77;;
6878;SDS011;3478;51.462;7.338;2023-12-20T16:32:18;17.47;;;10.20;;
6878;SDS011;3478;51.462;7.338;2023-12-20T16:37:21;22.30;;;11.70;;
6878;SDS011;3478;51.462;7.338;2023-12-20T16:42:23;19.90;;;10.30;;
6878;SDS011;3478;51.462;7.338;2023-12-20T16:47:26;15.50;;;9.80;;
6878;SDS011;3478;51.462;7.338;2023-12-20T16:52:28;16.90;;;9.97;;
6878;SDS011;3478;51.462;7.338;2023-12-20T16:57:30;21.73;;;10.50;;
6878;SDS011;3478;51.462;7.338;2023-12-20T17:02:33;24.43;;;9.83;;
6878;SDS011;3478;51.462;7.338;2023-12-20T17:07:35;21.37;;;11.17;;
6878;SDS011;3478;51.462;7.338;2023-12-20T17:12:37;22.70;;;12.17;;
6878;SDS011;3478;51.462;7.338;2023-12-20T17:17:41;21.03;;;10.83;;
6878;SDS011;3478;51.462;7.338;2023-12-20T17:22:42;21.30;;;10.97;;
6878;SDS011;3478;51.462;7.338;2023-12-20T17:27:44;28.70;;;10.57;;
6878;SDS011;3478;51.462;7.338;2023-12-20T17:32:48;19.47;;;12.20;;
6878;SDS011;3478;51.462;7.338;2023-12-20T17:37:50;12.53;;;10.30;;
6878;SDS011;3478;51.462;7.338;2023-12-20T17:42:52;19.53;;;10.40;;
6878;SDS011;3478;51.462;7.338;2023-12-20T17:47:57;16.37;;;11.17;;
6878;SDS011;3478;51.462;7.338;2023-12-20T17:52:59;14.80;;;10.70;;
6878;SDS011;3478;51.462;7.338;2023-12-20T17:58:01;17.20;;;10.57;;
6878;SDS011;3478;51.462;7.338;2023-12-20T18:03:04;18.47;;;9.37;;
6878;SDS011;3478;51.462;7.338;2023-12-20T18:08:06;15.43;;;9.33;;
6878;SDS011;3478;51.462;7.338;2023-12-20T18:13:08;15.60;;;9.67;;
6878;SDS011;3478;51.462;7.338;2023-12-20T18:18:11;18.27;;;10.73;;
6878;SDS011;3478;51.462;7.338;2023-12-20T18:23:13;12.17;;;8.50;;
6878;SDS011;3478;51.462;7.338;2023-12-20T18:28:16;16.33;;;8.90;;
6878;SDS011;3478;51.462;7.338;2023-12-20T18:33:19;23.00;;;9.90;;
6878;SDS011;3478;51.462;7.338;2023-12-20T18:38:21;21.10;;;9.77;;
6878;SDS011;3478;51.462;7.338;2023-12-20T18:43:28;17.37;;;9.00;;
6878;SDS011;3478;51.462;7.338;2023-12-20T18:48:32;12.63;;;9.53;;
6878;SDS011;3478;51.462;7.338;2023-12-20T18:53:34;14.80;;;8.93;;
6878;SDS011;3478;51.462;7.338;2023-12-20T18:58:36;17.70;;;10.57;;
6878;SDS011;3478;51.462;7.338;2023-12-20T19:03:40;12.47;;;7.57;;
6878;SDS011;3478;51.462;7.338;2023-12-20T19:08:42;14.63;;;8.90;;
6878;SDS011;3478;51.462;7.338;2023-12-20T19:13:44;20.13;;;10.10;;
6878;SDS011;3478;51.462;7.338;2023-12-20T19:18:48;15.23;;;7.90;;
6878;SDS011;3478;51.462;7.338;2023-12-20T19:23:50;9.47;;;7.03;;
6878;SDS011;3478;51.462;7.338;2023-12-20T19:28:52;10.67;;;8.30;;
6878;SDS011;3478;51.462;7.338;2023-12-20T19:33:55;15.27;;;8.23;;
6878;SDS011;3478;51.462;7.338;2023-12-20T19:38:58;17.00;;;8.70;;
6878;SDS011;3478;51.462;7.338;2023-12-20T19:44:00;17.80;;;8.47;;
6878;SDS011;3478;51.462;7.338;2023-12-20T19:49:04;18.10;;;8.30;;
6878;SDS011;3478;51.462;7.338;2023-12-20T19:54:06;18.07;;;9.90;;
6878;SDS011;3478;51.462;7.338;2023-12-20T19:59:07;14.30;;;9.67;;
6878;SDS011;3478;51.462;7.338;2023-12-20T20:04:11;18.13;;;9.03;;
6878;SDS011;3478;51.462;7.338;2023-12-20T20:09:13;17.57;;;9.93;;
6878;SDS011;3478;51.462;7.338;2023-12-20T20:14:15;19.17;;;8.20;;
6878;SDS011;3478;51.462;7.338;2023-12-20T20:19:18;9.53;;;7.67;;
6878;SDS011;3478;51.462;7.338;2023-12-20T20:24:20;17.17;;;8.87;;
6878;SDS011;3478;51.462;7.338;2023-12-20T20:29:23;18.90;;;8.33;;
6878;SDS011;3478;51.462;7.338;2023-12-20T20:34:27;14.53;;;9.20;;
6878;SDS011;3478;51.462;7.338;2023-12-20T20:39:28;11.20;;;7.90;;
6878;SDS011;3478;51.462;7.338;2023-12-20T20:44:30;12.13;;;7.43;;
6878;SDS011;3478;51.462;7.338;2023-12-20T20:49:34;9.67;;;7.73;;
6878;SDS011;3478;51.462;7.338;2023-12-20T20:54:35;10.53;;;7.10;;
6878;SDS011;3478;51.462;7.338;2023-12-20T20:59:37;17.43;;;8.90;;
6878;SDS011;3478;51.462;7.338;2023-12-20T21:04:43;11.60;;;7.87;;
6878;SDS011;3478;51.462;7.338;2023-12-20T21:09:45;13.17;;;8.13;;
6878;SDS011;3478;51.462;7.338;2023-12-20T21:14:48;11.97;;;7.83;;
6878;SDS011;3478;51.462;7.338;2023-12-20T21:19:51;14.40;;;7.80;;
6878;SDS011;3478;51.462;7.338;2023-12-20T21:24:53;9.90;;;6.03;;
6878;SDS011;3478;51.462;7.338;2023-12-20T21:29:55;5.77;;;5.10;;
6878;SDS011;3478;51.462;7.338;2023-12-20T21:34:59;5.67;;;5.07;;
6878;SDS011;3478;51.462;7.338;2023-12-20T21:40:00;9.40;;;4.37;;
6878;SDS011;3478;51.462;7.338;2023-12-20T21:45:03;9.20;;;3.80;;
6878;SDS011;3478;51.462;7.338;2023-12-20T21:50:07;4.03;;;3.73;;
6878;SDS011;3478;51.462;7.338;2023-12-20T21:55:09;3.90;;;3.63;;
6878;SDS011;3478;51.462;7.338;2023-12-20T22:00:11;4.37;;;3.93;;
6878;SDS011;3478;51.462;7.338;2023-12-20T22:05:15;5.80;;;3.10;;
6878;SDS011;3478;51.462;7.338;2023-12-20T22:10:17;3.87;;;3.43;;
6878;SDS011;3478;51.462;7.338;2023-12-20T22:15:19;4.13;;;3.73;;
6878;SDS011;3478;51.462;7.338;2023-12-20T22:20:22;4.70;;;4.03;;
6878;SDS011;3478;51.462;7.338;2023-12-20T22:25:24;5.30;;;4.90;;
6878;SDS011;3478;51.462;7.338;2023-12-20T22:30:26;5.97;;;5.40;;
6878;SDS011;3478;51.462;7.338;2023-12-20T22:35:29;6.00;;;5.13;;
6878;SDS011;3478;51.462;7.338;2023-12-20T22:40:31;8.07;;;6.37;;
6878;SDS011;3478;51.462;7.338;2023-12-20T22:45:33;6.63;;;5.97;;
6878;SDS011;3478;51.462;7.338;2023-12-20T22:50:38;6.80;;;5.63;;
6878;SDS011;3478;51.462;7.338;2023-12-20T22:55:40;6.17;;;5.57;;
6878;SDS011;3478;51.462;7.338;2023-12-20T23:00:42;6.23;;;5.63;;
6878;SDS011;3478;51.462;7.338;2023-12-20T23:05:45;11.33;;;5.70;;
6878;SDS011;3478;51.462;7.338;2023-12-20T23:10:47;6.93;;;5.83;;
6878;SDS011;3478;51.462;7.338;2023-12-20T23:15:49;5.30;;;4.77;;
6878;SDS011;3478;51.462;7.338;2023-12-20T23:20:52;7.13;;;6.20;;
6878;SDS011;3478;51.462;7.338;2023-12-20T23:25:54;7.53;;;6.13;;
6878;SDS011;3478;51.462;7.338;2023-12-20T23:30:56;5.70;;;4.93;;
6878;SDS011;3478;51.462;7.338;2023-12-20T23:35:59;5.20;;;4.87;;
6878;SDS011;3478;51.462;7.338;2023-12-20T23:41:01;4.30;;;4.00;;
6878;SDS011;3478;51.462;7.338;2023-12-20T23:46:03;4.83;;;4.33;;
6878;SDS011;3478;51.462;7.338;2023-12-20T23:51:07;5.43;;;5.00;;
6878;SDS011;3478;51.462;7.338;2023-12-20T23:56:08;4.73;;;4.40;;
